Time;durP1;ratioP1;P1;durP2;ratioP2;P2;SDS_P1;SDS_P2;PMS_P1;PMS_P2;Temp;Humidity;BMP_temperature;BMP_pressure;BME280_temperature;BME280_humidity;BME280_pressure;Samples;Min_cycle;Max_cycle;Signal;HPM_P1;HPM_P2
2023/11/17 00:02:00;;;;;;;1.67;0.67;;;;;;;;;;5034044;28;20791;-85
2023/11/17 00:04:26;;;;;;;1.10;0.97;;;;;;;;;;5033498;28;20433;-84
2023/11/17 00:06:52;;;;;;;1.27;0.60;;;;;;;;;;5029905;28;20479;-84
2023/11/17 00:09:18;;;;;;;1.37;0.90;;;;;;;;;;5032422;28;20467;-84
2023/11/17 00:11:43;;;;;;;1.30;0.80;;;;;;;;;;5031172;28;20469;-84
2023/11/17 00:14:10;;;;;;;1.40;0.80;;;;;;;;;;5014108;28;20482;-84
2023/11/17 00:16:36;;;;;;;1.73;0.70;;;;;;;;;;5014130;28;20414;-84
2023/11/17 00:19:08;;;;;;;2.10;0.57;;;;;;;;;;5029297;28;20416;-84
2023/11/17 00:21:34;;;;;;;1.37;0.50;;;;;;;;;;5013705;28;21012;-83
2023/11/17 00:24:00;;;;;;;0.70;0.43;;;;;;;;;;5012907;28;20524;-84
2023/11/17 00:26:27;;;;;;;1.10;0.63;;;;;;;;;;5014071;28;20417;-84
2023/11/17 00:28:53;;;;;;;0.97;0.43;;;;;;;;;;5013938;28;20507;-84
2023/11/17 00:31:19;;;;;;;1.10;0.50;;;;;;;;;;5028880;28;20570;-83
2023/11/17 00:33:45;;;;;;;1.23;0.70;;;;;;;;;;5013619;28;20586;-84
2023/11/17 00:36:12;;;;;;;1.67;0.40;;;;;;;;;;5023963;28;20813;-83
2023/11/17 00:38:38;;;;;;;2.83;0.50;;;;;;;;;;5033143;28;20766;-84
2023/11/17 00:41:04;;;;;;;0.73;0.50;;;;;;;;;;5033399;28;20401;-84
2023/11/17 00:43:31;;;;;;;0.90;0.30;;;;;;;;;;5032168;28;20436;-83
2023/11/17 00:45:58;;;;;;;0.80;0.33;;;;;;;;;;5033389;28;20413;-83
2023/11/17 00:48:30;;;;;;;1.03;0.40;;;;;;;;;;5033283;28;20404;-84
2023/11/17 00:50:57;;;;;;;3.93;1.33;;;;;;;;;;5033345;28;20425;-84
2023/11/17 00:53:25;;;;;;;1.10;0.60;;;;;;;;;;5032894;28;20800;-83
2023/11/17 00:55:51;;;;;;;1.17;0.57;;;;;;;;;;5033249;28;20970;-84
2023/11/17 00:58:17;;;;;;;1.60;0.60;;;;;;;;;;5033183;28;20408;-84
2023/11/17 01:00:43;;;;;;;1.30;0.53;;;;;;;;;;5033165;28;20466;-84
2023/11/17 01:03:10;;;;;;;2.27;0.67;;;;;;;;;;5033110;28;20411;-83
2023/11/17 01:05:36;;;;;;;1.00;0.70;;;;;;;;;;5033101;28;20510;-84
2023/11/17 01:08:01;;;;;;;1.83;0.80;;;;;;;;;;5033102;28;20566;-84
2023/11/17 01:10:28;;;;;;;2.40;0.70;;;;;;;;;;5032753;28;20894;-83
2023/11/17 01:12:54;;;;;;;1.30;0.60;;;;;;;;;;5032937;28;20438;-83
2023/11/17 01:15:20;;;;;;;1.40;0.63;;;;;;;;;;5027442;28;20435;-85
2023/11/17 01:17:46;;;;;;;1.17;0.30;;;;;;;;;;5032181;28;20432;-84
2023/11/17 01:20:12;;;;;;;1.53;0.70;;;;;;;;;;5032953;28;20498;-84
2023/11/17 01:22:39;;;;;;;1.27;0.63;;;;;;;;;;5031761;28;20758;-84
2023/11/17 01:25:05;;;;;;;1.33;0.77;;;;;;;;;;5029334;28;20994;-83
2023/11/17 01:27:31;;;;;;;0.93;0.40;;;;;;;;;;5032975;28;20468;-84
2023/11/17 01:29:57;;;;;;;0.60;0.30;;;;;;;;;;5031360;28;20421;-82
2023/11/17 01:32:23;;;;;;;0.93;0.37;;;;;;;;;;5032974;28;20405;-82
2023/11/17 01:34:49;;;;;;;0.67;0.40;;;;;;;;;;5035512;28;20881;-82
2023/11/17 01:37:15;;;;;;;2.80;0.87;;;;;;;;;;5021775;28;20560;-81
2023/11/17 01:39:41;;;;;;;0.63;0.30;;;;;;;;;;5016816;28;20442;-82
2023/11/17 01:42:06;;;;;;;3.17;0.80;;;;;;;;;;5017028;28;20405;-82
2023/11/17 01:44:32;;;;;;;0.87;0.50;;;;;;;;;;5017112;28;20428;-82
2023/11/17 01:46:59;;;;;;;0.93;0.20;;;;;;;;;;5017112;28;20415;-82
2023/11/17 01:49:25;;;;;;;1.00;0.30;;;;;;;;;;5017086;28;20425;-82
2023/11/17 01:51:51;;;;;;;1.33;0.50;;;;;;;;;;5016946;28;20446;-82
2023/11/17 01:54:17;;;;;;;1.20;0.40;;;;;;;;;;5016432;28;20524;-83
2023/11/17 01:56:44;;;;;;;1.73;0.70;;;;;;;;;;5018010;28;20482;-82
2023/11/17 01:59:10;;;;;;;1.27;1.00;;;;;;;;;;5036432;28;20521;-81
2023/11/17 02:01:36;;;;;;;0.87;0.40;;;;;;;;;;5032601;28;20439;-80
2023/11/17 02:04:02;;;;;;;2.10;0.60;;;;;;;;;;5023488;28;20427;-82
2023/11/17 02:06:42;;;;;;;1.63;1.13;;;;;;;;;;5027905;28;20423;-82
2023/11/17 02:09:13;;;;;;;1.50;0.80;;;;;;;;;;5016440;28;20412;-82
2023/11/17 02:12:00;;;;;;;0.90;0.37;;;;;;;;;;5016761;28;20410;-81
2023/11/17 02:14:30;;;;;;;1.33;0.67;;;;;;;;;;5016419;28;20536;-82
2023/11/17 02:16:58;;;;;;;1.17;0.60;;;;;;;;;;5016244;28;20413;-81
2023/11/17 02:19:34;;;;;;;1.60;0.77;;;;;;;;;;5016424;28;20428;-82
2023/11/17 02:22:02;;;;;;;1.30;0.60;;;;;;;;;;5016437;28;20413;-82
2023/11/17 02:24:31;;;;;;;1.30;0.40;;;;;;;;;;5016112;28;20919;-81
2023/11/17 02:27:15;;;;;;;0.83;0.40;;;;;;;;;;5016355;28;20415;-81
2023/11/17 02:29:44;;;;;;;1.17;0.33;;;;;;;;;;5016321;28;20461;-81
2023/11/17 02:32:15;;;;;;;0.93;0.60;;;;;;;;;;5016123;28;20495;-81
2023/11/17 02:34:42;;;;;;;1.23;0.90;;;;;;;;;;5016121;28;20475;-81
2023/11/17 02:37:11;;;;;;;1.13;0.80;;;;;;;;;;5016218;28;20416;-82
2023/11/17 02:39:38;;;;;;;1.63;0.53;;;;;;;;;;5015843;28;20399;-82
2023/11/17 02:42:10;;;;;;;2.27;0.50;;;;;;;;;;5016057;28;20896;-82
2023/11/17 02:44:39;;;;;;;1.00;0.57;;;;;;;;;;5015880;28;20404;-82
2023/11/17 02:47:08;;;;;;;1.33;0.50;;;;;;;;;;5015176;28;20766;-82
2023/11/17 02:49:34;;;;;;;1.70;0.60;;;;;;;;;;5015954;28;20400;-81
2023/11/17 02:52:15;;;;;;;1.33;0.80;;;;;;;;;;5015926;28;20409;-82
2023/11/17 02:54:40;;;;;;;1.33;0.57;;;;;;;;;;5015411;28;21047;-81
2023/11/17 02:57:06;;;;;;;1.50;0.40;;;;;;;;;;5015821;28;20410;-83
2023/11/17 02:59:35;;;;;;;1.53;0.70;;;;;;;;;;5015820;28;20421;-82
2023/11/17 03:02:02;;;;;;;1.67;0.80;;;;;;;;;;5015703;28;20406;-83
2023/11/17 03:04:28;;;;;;;0.90;0.43;;;;;;;;;;5015595;28;20407;-82
2023/11/17 03:06:54;;;;;;;1.27;0.50;;;;;;;;;;5030939;28;20768;-83
2023/11/17 03:09:23;;;;;;;1.77;0.70;;;;;;;;;;5030478;28;20425;-83
2023/11/17 03:11:59;;;;;;;1.60;0.80;;;;;;;;;;5015641;28;20406;-84
2023/11/17 03:14:25;;;;;;;1.90;0.60;;;;;;;;;;4993280;28;20564;-83
2023/11/17 03:16:59;;;;;;;2.20;0.70;;;;;;;;;;5035198;28;20417;-83
2023/11/17 03:19:25;;;;;;;0.90;0.50;;;;;;;;;;5035253;28;20421;-82
2023/11/17 03:21:54;;;;;;;1.23;0.20;;;;;;;;;;5033929;28;20419;-81
2023/11/17 03:24:20;;;;;;;2.20;0.93;;;;;;;;;;5034744;28;20423;-83
2023/11/17 03:26:52;;;;;;;1.23;0.77;;;;;;;;;;5035067;28;20485;-82
2023/11/17 03:29:19;;;;;;;2.00;1.27;;;;;;;;;;5035013;28;20838;-83
2023/11/17 03:31:49;;;;;;;1.60;0.50;;;;;;;;;;5034802;28;20484;-83
2023/11/17 03:34:23;;;;;;;1.67;0.53;;;;;;;;;;5034766;28;20464;-83
2023/11/17 03:36:48;;;;;;;2.23;0.60;;;;;;;;;;5034853;28;20418;-82
2023/11/17 03:39:15;;;;;;;1.27;0.80;;;;;;;;;;5034496;28;20415;-84
2023/11/17 03:41:41;;;;;;;2.33;0.87;;;;;;;;;;5034835;28;20407;-81
2023/11/17 03:44:07;;;;;;;1.80;0.60;;;;;;;;;;5034702;28;20418;-83
2023/11/17 03:46:33;;;;;;;1.60;0.37;;;;;;;;;;5033421;28;20510;-82
2023/11/17 03:49:03;;;;;;;2.27;0.63;;;;;;;;;;5034589;28;20852;-82
2023/11/17 03:51:29;;;;;;;1.43;1.07;;;;;;;;;;5034520;28;20940;-82
2023/11/17 03:53:55;;;;;;;1.40;0.60;;;;;;;;;;5034076;28;20509;-82
2023/11/17 03:56:21;;;;;;;1.90;1.10;;;;;;;;;;5034165;28;20953;-82
2023/11/17 03:58:47;;;;;;;2.23;1.27;;;;;;;;;;5034378;28;20417;-82
2023/11/17 04:01:12;;;;;;;1.60;1.33;;;;;;;;;;5034493;28;20415;-82
2023/11/17 04:03:38;;;;;;;1.57;0.60;;;;;;;;;;5034393;28;20412;-82
2023/11/17 04:06:05;;;;;;;1.30;0.90;;;;;;;;;;5034355;28;20419;-81
2023/11/17 04:08:31;;;;;;;1.67;1.03;;;;;;;;;;5033957;28;20420;-81
2023/11/17 04:10:56;;;;;;;2.73;1.20;;;;;;;;;;5034212;28;20506;-81
2023/11/17 04:13:27;;;;;;;1.57;1.27;;;;;;;;;;5034109;28;20540;-82
2023/11/17 04:15:53;;;;;;;2.03;0.97;;;;;;;;;;5034078;28;20472;-82
2023/11/17 04:18:19;;;;;;;1.67;0.90;;;;;;;;;;5032803;28;20418;-81
2023/11/17 04:20:48;;;;;;;2.03;1.00;;;;;;;;;;5032828;28;20937;-81
2023/11/17 04:23:14;;;;;;;2.70;1.10;;;;;;;;;;5033678;28;20410;-81
2023/11/17 04:25:39;;;;;;;3.77;1.30;;;;;;;;;;5032728;28;20423;-81
2023/11/17 04:28:05;;;;;;;3.63;1.00;;;;;;;;;;5033899;28;20870;-81
2023/11/17 04:30:31;;;;;;;1.57;1.10;;;;;;;;;;5033679;28;20469;-81
2023/11/17 04:32:57;;;;;;;1.30;0.77;;;;;;;;;;5033765;28;20471;-81
2023/11/17 04:35:23;;;;;;;1.60;0.83;;;;;;;;;;5033755;28;20418;-81
2023/11/17 04:37:49;;;;;;;2.00;0.77;;;;;;;;;;5033384;28;20408;-82
2023/11/17 04:40:16;;;;;;;1.60;0.90;;;;;;;;;;5048989;28;20930;-81
2023/11/17 04:42:41;;;;;;;1.30;0.50;;;;;;;;;;5033671;28;21078;-84
2023/11/17 04:45:09;;;;;;;1.20;0.77;;;;;;;;;;5033559;28;20521;-82
2023/11/17 04:47:35;;;;;;;1.43;0.70;;;;;;;;;;5033558;28;20913;-81
2023/11/17 04:50:01;;;;;;;1.37;0.50;;;;;;;;;;5033434;28;20421;-82
2023/11/17 04:52:27;;;;;;;1.80;0.60;;;;;;;;;;5032216;28;20472;-82
2023/11/17 04:54:53;;;;;;;1.70;0.93;;;;;;;;;;5048376;28;20528;-82
2023/11/17 04:57:19;;;;;;;1.50;0.90;;;;;;;;;;5033400;28;20452;-82
2023/11/17 04:59:49;;;;;;;1.23;0.53;;;;;;;;;;5033426;28;20445;-82
2023/11/17 05:02:15;;;;;;;1.00;0.50;;;;;;;;;;5033378;28;20407;-82
2023/11/17 05:04:42;;;;;;;1.80;0.90;;;;;;;;;;5033231;28;20837;-83
2023/11/17 05:07:08;;;;;;;1.77;0.80;;;;;;;;;;5033297;28;20922;-82
2023/11/17 05:09:33;;;;;;;2.10;0.87;;;;;;;;;;5032282;28;20516;-82
2023/11/17 05:11:59;;;;;;;1.23;0.53;;;;;;;;;;5033189;28;20416;-81
2023/11/17 05:14:25;;;;;;;2.20;0.70;;;;;;;;;;5033196;28;20520;-81
2023/11/17 05:16:59;;;;;;;2.07;1.03;;;;;;;;;;5033027;28;20755;-82
2023/11/17 05:19:25;;;;;;;2.13;0.53;;;;;;;;;;5031211;28;20468;-81
2023/11/17 05:21:51;;;;;;;2.00;1.00;;;;;;;;;;5020511;28;20422;-81
2023/11/17 05:24:17;;;;;;;1.83;1.10;;;;;;;;;;5028180;28;20432;-81
2023/11/17 05:26:43;;;;;;;1.30;0.87;;;;;;;;;;5033073;28;20412;-81
2023/11/17 05:29:11;;;;;;;1.30;0.87;;;;;;;;;;5032992;28;20779;-81
2023/11/17 05:31:36;;;;;;;2.00;1.00;;;;;;;;;;5020282;28;20508;-81
2023/11/17 05:34:02;;;;;;;2.97;0.83;;;;;;;;;;5013178;28;20576;-81
2023/11/17 05:36:28;;;;;;;3.00;1.50;;;;;;;;;;5013286;28;20497;-81
2023/11/17 05:38:55;;;;;;;3.03;1.20;;;;;;;;;;5028004;28;20424;-81
2023/11/17 05:41:23;;;;;;;2.83;1.13;;;;;;;;;;5020656;28;20424;-81
2023/11/17 05:43:49;;;;;;;2.87;1.00;;;;;;;;;;5013296;28;20466;-81
2023/11/17 05:46:15;;;;;;;2.60;1.30;;;;;;;;;;5022731;28;20408;-81
2023/11/17 05:48:41;;;;;;;2.80;1.30;;;;;;;;;;5032311;28;20916;-81
2023/11/17 05:51:09;;;;;;;1.90;1.33;;;;;;;;;;5013157;28;20409;-81
2023/11/17 05:53:37;;;;;;;1.93;1.47;;;;;;;;;;5028779;28;21009;-80
2023/11/17 05:56:04;;;;;;;3.27;1.30;;;;;;;;;;5052549;28;20816;-82
2023/11/17 05:58:29;;;;;;;1.97;0.97;;;;;;;;;;5052552;28;20423;-81
2023/11/17 06:00:55;;;;;;;1.70;1.07;;;;;;;;;;5067962;28;20437;-80
2023/11/17 06:03:21;;;;;;;2.00;1.00;;;;;;;;;;5052430;28;20512;-81
2023/11/17 06:05:47;;;;;;;4.67;1.50;;;;;;;;;;5067843;28;20408;-82
2023/11/17 06:08:13;;;;;;;2.67;1.60;;;;;;;;;;5052170;28;20414;-81
2023/11/17 06:10:39;;;;;;;2.37;0.80;;;;;;;;;;5052144;28;20407;-81
2023/11/17 06:13:05;;;;;;;2.23;1.20;;;;;;;;;;5040061;28;21013;-81
2023/11/17 06:15:31;;;;;;;2.07;1.03;;;;;;;;;;5042345;28;20887;-81
2023/11/17 06:17:58;;;;;;;2.03;1.00;;;;;;;;;;5040943;28;20412;-81
2023/11/17 06:20:25;;;;;;;1.90;1.17;;;;;;;;;;5042674;28;20416;-81
2023/11/17 06:22:51;;;;;;;3.97;1.57;;;;;;;;;;5034803;28;20996;-80
2023/11/17 06:25:17;;;;;;;2.30;1.27;;;;;;;;;;5020009;28;20433;-81
2023/11/17 06:27:46;;;;;;;2.10;0.80;;;;;;;;;;5015671;28;20413;-81
2023/11/17 06:30:12;;;;;;;2.00;1.20;;;;;;;;;;5016165;28;20533;-81
2023/11/17 06:32:38;;;;;;;2.30;1.30;;;;;;;;;;5016307;28;20417;-80
2023/11/17 06:35:05;;;;;;;3.77;1.57;;;;;;;;;;5016243;28;20820;-80
2023/11/17 06:37:31;;;;;;;2.10;1.80;;;;;;;;;;5015886;28;20412;-80
2023/11/17 06:39:59;;;;;;;2.23;1.57;;;;;;;;;;5016220;28;20502;-80
2023/11/17 06:42:25;;;;;;;2.43;1.53;;;;;;;;;;5016078;28;20402;-80
2023/11/17 06:44:51;;;;;;;3.00;2.20;;;;;;;;;;5031352;28;20421;-81
2023/11/17 06:47:17;;;;;;;2.03;1.67;;;;;;;;;;5015807;28;20419;-82
2023/11/17 06:49:43;;;;;;;4.40;2.30;;;;;;;;;;5015859;28;21025;-82
2023/11/17 06:52:09;;;;;;;4.53;2.20;;;;;;;;;;5015820;28;20513;-81
2023/11/17 06:54:35;;;;;;;3.70;2.60;;;;;;;;;;5015327;28;20833;-82
2023/11/17 06:57:01;;;;;;;3.20;2.20;;;;;;;;;;5015885;28;20418;-81
2023/11/17 06:59:27;;;;;;;5.90;2.63;;;;;;;;;;5015897;28;20417;-82
2023/11/17 07:01:53;;;;;;;2.70;1.83;;;;;;;;;;5030967;28;20419;-82
2023/11/17 07:04:21;;;;;;;2.27;1.90;;;;;;;;;;5015684;28;20426;-82
2023/11/17 07:06:47;;;;;;;3.53;1.87;;;;;;;;;;5015587;28;20411;-82
2023/11/17 07:09:16;;;;;;;4.90;2.63;;;;;;;;;;5015255;28;20485;-82
2023/11/17 07:11:44;;;;;;;2.57;2.27;;;;;;;;;;5015573;28;20434;-80
2023/11/17 07:14:11;;;;;;;4.43;2.73;;;;;;;;;;5014166;28;20480;-79
2023/11/17 07:16:37;;;;;;;2.90;1.97;;;;;;;;;;4979301;28;20430;-81
2023/11/17 07:19:08;;;;;;;3.53;2.40;;;;;;;;;;5015293;28;20756;-82
2023/11/17 07:21:34;;;;;;;2.63;2.43;;;;;;;;;;5015365;28;20421;-82
2023/11/17 07:24:00;;;;;;;4.27;3.30;;;;;;;;;;5013727;28;20828;-83
2023/11/17 07:26:29;;;;;;;3.40;2.80;;;;;;;;;;5015297;28;20415;-82
2023/11/17 07:28:55;;;;;;;3.10;2.77;;;;;;;;;;5015168;28;20414;-82
2023/11/17 07:31:21;;;;;;;3.80;3.00;;;;;;;;;;5014401;28;20482;-82
2023/11/17 07:33:47;;;;;;;7.00;2.93;;;;;;;;;;5015090;28;20821;-82
2023/11/17 07:36:16;;;;;;;4.00;3.00;;;;;;;;;;5015063;28;20435;-81
2023/11/17 07:38:42;;;;;;;2.90;2.60;;;;;;;;;;5014687;28;20910;-82
2023/11/17 07:41:10;;;;;;;3.63;3.23;;;;;;;;;;5014888;28;20472;-82
2023/11/17 07:43:36;;;;;;;3.03;2.67;;;;;;;;;;5014945;28;20416;-82
2023/11/17 07:46:02;;;;;;;2.77;2.47;;;;;;;;;;5014871;28;20420;-82
2023/11/17 07:48:31;;;;;;;3.67;2.53;;;;;;;;;;5014738;28;20461;-82
2023/11/17 07:50:58;;;;;;;3.27;2.47;;;;;;;;;;5014725;28;20402;-82
2023/11/17 07:53:24;;;;;;;2.73;1.87;;;;;;;;;;5013065;28;20457;-82
2023/11/17 07:55:52;;;;;;;2.53;2.10;;;;;;;;;;5014586;28;20415;-82
2023/11/17 07:58:19;;;;;;;7.83;1.73;;;;;;;;;;5013519;28;20473;-81
2023/11/17 08:00:47;;;;;;;2.13;0.93;;;;;;;;;;5014661;28;20425;-82
2023/11/17 08:03:14;;;;;;;3.10;1.90;;;;;;;;;;5014583;28;20433;-82
2023/11/17 08:05:40;;;;;;;2.50;1.13;;;;;;;;;;5014528;28;20462;-82
2023/11/17 08:08:07;;;;;;;2.50;1.43;;;;;;;;;;5014197;28;21038;-83
2023/11/17 08:10:33;;;;;;;2.17;1.07;;;;;;;;;;5014505;28;20812;-83
2023/11/17 08:13:00;;;;;;;2.00;1.03;;;;;;;;;;5014261;28;20508;-82
2023/11/17 08:15:29;;;;;;;6.30;1.63;;;;;;;;;;4989753;28;20522;-84
2023/11/17 08:17:54;;;;;;;1.90;1.10;;;;;;;;;;5053944;28;20408;-83
2023/11/17 08:20:22;;;;;;;1.57;0.80;;;;;;;;;;5053941;28;20414;-80
2023/11/17 08:22:48;;;;;;;1.37;0.40;;;;;;;;;;5053650;28;20758;-81
2023/11/17 08:25:14;;;;;;;1.70;0.90;;;;;;;;;;5053830;28;20418;-82
2023/11/17 08:27:41;;;;;;;3.17;1.50;;;;;;;;;;5053765;28;20513;-80
2023/11/17 08:30:07;;;;;;;2.60;1.30;;;;;;;;;;5053518;28;20417;-81
2023/11/17 08:32:36;;;;;;;2.80;1.90;;;;;;;;;;5053779;28;20507;-81
2023/11/17 08:35:04;;;;;;;3.20;1.27;;;;;;;;;;5053686;28;20854;-81
2023/11/17 08:37:32;;;;;;;2.47;1.10;;;;;;;;;;5053224;28;20415;-82
2023/11/17 08:40:08;;;;;;;2.43;1.10;;;;;;;;;;5053548;28;20421;-82
2023/11/17 08:42:37;;;;;;;3.07;1.00;;;;;;;;;;5053342;28;20945;-82
2023/11/17 08:45:07;;;;;;;2.00;1.57;;;;;;;;;;5052851;28;20420;-82
2023/11/17 08:47:35;;;;;;;3.73;1.10;;;;;;;;;;5053407;28;20418;-82
2023/11/17 08:50:02;;;;;;;2.50;1.40;;;;;;;;;;5068830;28;20446;-82
2023/11/17 08:52:33;;;;;;;2.87;1.87;;;;;;;;;;5053071;28;20854;-82
2023/11/17 08:54:59;;;;;;;2.73;1.27;;;;;;;;;;5053277;28;20503;-80
2023/11/17 08:57:25;;;;;;;3.43;2.00;;;;;;;;;;5053390;28;20760;-80
2023/11/17 08:59:51;;;;;;;3.20;1.70;;;;;;;;;;5053231;28;20458;-80
2023/11/17 09:02:16;;;;;;;3.13;2.00;;;;;;;;;;5053257;28;20418;-80
2023/11/17 09:04:44;;;;;;;3.70;2.70;;;;;;;;;;5053107;28;20422;-80
2023/11/17 09:07:10;;;;;;;3.20;2.60;;;;;;;;;;5052763;28;20542;-80
2023/11/17 09:09:36;;;;;;;4.57;2.90;;;;;;;;;;5068635;28;20989;-82
2023/11/17 09:12:04;;;;;;;3.20;2.20;;;;;;;;;;5053103;28;20783;-80
2023/11/17 09:14:31;;;;;;;2.13;1.50;;;;;;;;;;5052890;28;20492;-81
2023/11/17 09:16:57;;;;;;;2.70;1.73;;;;;;;;;;5052823;28;20540;-80
2023/11/17 09:19:23;;;;;;;1.73;1.30;;;;;;;;;;5052948;28;20890;-81
2023/11/17 09:21:49;;;;;;;2.60;1.30;;;;;;;;;;5053148;28;20506;-80
2023/11/17 09:24:15;;;;;;;2.83;1.93;;;;;;;;;;5052480;28;20452;-80
2023/11/17 09:26:41;;;;;;;2.67;1.33;;;;;;;;;;5052936;28;20760;-80
2023/11/17 09:29:07;;;;;;;7.77;2.50;;;;;;;;;;5068268;28;20907;-80
2023/11/17 09:31:33;;;;;;;3.93;1.30;;;;;;;;;;5052784;28;20826;-80
2023/11/17 09:33:59;;;;;;;2.83;1.47;;;;;;;;;;5052596;28;20577;-81
2023/11/17 09:36:26;;;;;;;2.40;1.00;;;;;;;;;;5052842;28;20432;-81
2023/11/17 09:38:53;;;;;;;1.67;1.50;;;;;;;;;;5052511;28;20413;-80
2023/11/17 09:41:19;;;;;;;2.97;0.93;;;;;;;;;;5052848;28;20908;-80
2023/11/17 09:43:47;;;;;;;2.40;1.50;;;;;;;;;;5052820;28;20458;-80
2023/11/17 09:46:15;;;;;;;1.87;1.07;;;;;;;;;;5052779;28;20911;-81
2023/11/17 09:48:42;;;;;;;1.80;1.23;;;;;;;;;;5052886;28;20793;-80
2023/11/17 09:51:08;;;;;;;1.57;1.23;;;;;;;;;;5052752;28;21506;-80
2023/11/17 09:53:34;;;;;;;1.97;1.30;;;;;;;;;;5052297;28;20452;-81
2023/11/17 09:56:03;;;;;;;1.40;1.23;;;;;;;;;;5055499;28;20845;-80
2023/11/17 09:58:30;;;;;;;1.43;1.10;;;;;;;;;;5056516;28;20905;-80
2023/11/17 10:00:56;;;;;;;2.50;1.70;;;;;;;;;;5056380;28;20974;-81
2023/11/17 10:03:22;;;;;;;1.40;0.73;;;;;;;;;;5056617;28;20411;-81
2023/11/17 10:05:50;;;;;;;1.50;1.17;;;;;;;;;;5056564;28;20743;-81
2023/11/17 10:08:16;;;;;;;2.00;1.63;;;;;;;;;;5056151;28;20423;-80
2023/11/17 10:10:46;;;;;;;2.63;1.87;;;;;;;;;;5056427;28;20448;-81
2023/11/17 10:13:13;;;;;;;1.60;1.50;;;;;;;;;;5071766;28;20464;-80
2023/11/17 10:15:48;;;;;;;2.07;1.87;;;;;;;;;;5056395;28;20426;-80
2023/11/17 10:18:18;;;;;;;1.10;0.80;;;;;;;;;;5056196;28;20459;-82
2023/11/17 10:20:46;;;;;;;2.00;0.93;;;;;;;;;;5056328;28;20833;-81
2023/11/17 10:23:12;;;;;;;1.37;0.93;;;;;;;;;;5055886;28;20394;-81
2023/11/17 10:25:38;;;;;;;1.50;1.27;;;;;;;;;;5056175;28;20404;-80
2023/11/17 10:28:04;;;;;;;2.53;1.50;;;;;;;;;;5056115;28;20411;-80
2023/11/17 10:30:34;;;;;;;1.97;1.60;;;;;;;;;;5055857;28;20463;-80
2023/11/17 10:33:08;;;;;;;2.33;1.90;;;;;;;;;;5056055;28;20812;-81
2023/11/17 10:35:35;;;;;;;2.13;0.83;;;;;;;;;;5056094;28;20413;-82
2023/11/17 10:38:04;;;;;;;1.73;1.17;;;;;;;;;;5055660;28;20928;-81
2023/11/17 10:40:35;;;;;;;2.50;1.33;;;;;;;;;;5055892;28;20468;-80
2023/11/17 10:43:07;;;;;;;2.20;1.70;;;;;;;;;;5055926;28;20406;-81
2023/11/17 10:45:33;;;;;;;2.77;1.43;;;;;;;;;;5055823;28;20420;-81
2023/11/17 10:47:59;;;;;;;2.20;1.70;;;;;;;;;;5071122;28;20954;-80
2023/11/17 10:50:28;;;;;;;2.00;0.97;;;;;;;;;;5055668;28;20414;-81
2023/11/17 10:52:54;;;;;;;1.20;1.10;;;;;;;;;;5055422;28;20400;-81
2023/11/17 10:55:33;;;;;;;1.43;1.10;;;;;;;;;;5055576;28;20989;-80
2023/11/17 10:58:13;;;;;;;4.57;1.33;;;;;;;;;;5055576;28;20407;-81
2023/11/17 11:00:39;;;;;;;2.27;1.50;;;;;;;;;;5055537;28;20432;-81
2023/11/17 11:03:10;;;;;;;1.60;0.90;;;;;;;;;;5055772;28;20419;-80
2023/11/17 11:05:40;;;;;;;2.07;1.03;;;;;;;;;;5055230;28;20852;-81
2023/11/17 11:08:13;;;;;;;1.87;0.47;;;;;;;;;;5054259;28;20421;-81
2023/11/17 11:10:39;;;;;;;0.70;0.20;;;;;;;;;;5055367;28;20505;-81
2023/11/17 11:13:05;;;;;;;2.00;0.73;;;;;;;;;;5055226;28;20439;-81
2023/11/17 11:15:32;;;;;;;1.30;0.43;;;;;;;;;;5055300;28;20513;-80
2023/11/17 11:18:03;;;;;;;1.03;0.40;;;;;;;;;;5055142;28;20424;-81
2023/11/17 11:20:30;;;;;;;1.27;0.70;;;;;;;;;;5055193;28;20413;-81
2023/11/17 11:22:56;;;;;;;0.93;0.30;;;;;;;;;;5070251;28;20428;-82
2023/11/17 11:25:23;;;;;;;0.70;0.30;;;;;;;;;;5055093;28;20426;-82
2023/11/17 11:27:49;;;;;;;1.00;0.33;;;;;;;;;;5055074;28;20520;-82
2023/11/17 11:30:18;;;;;;;2.10;0.27;;;;;;;;;;5054828;28;20601;-82
2023/11/17 11:32:44;;;;;;;1.43;0.67;;;;;;;;;;5055017;28;20449;-82
2023/11/17 11:35:10;;;;;;;1.13;0.30;;;;;;;;;;5070209;28;20902;-82
2023/11/17 11:37:38;;;;;;;2.27;0.80;;;;;;;;;;5054426;28;20472;-82
2023/11/17 11:40:04;;;;;;;1.37;0.40;;;;;;;;;;5070205;28;21097;-82
2023/11/17 11:42:31;;;;;;;1.57;0.40;;;;;;;;;;5054759;28;20421;-82
2023/11/17 11:44:57;;;;;;;1.80;0.20;;;;;;;;;;5054773;28;20407;-81
2023/11/17 11:47:24;;;;;;;0.77;0.47;;;;;;;;;;5054633;28;20426;-82
2023/11/17 11:49:52;;;;;;;0.80;0.20;;;;;;;;;;5054501;28;20749;-83
2023/11/17 11:52:20;;;;;;;1.43;0.53;;;;;;;;;;5054219;28;20423;-82
2023/11/17 11:54:46;;;;;;;1.33;0.60;;;;;;;;;;5054462;28;20471;-82
2023/11/17 11:57:42;;;;;;;1.80;0.50;;;;;;;;;;5054470;28;20406;-82
2023/11/17 12:00:17;;;;;;;1.70;0.40;;;;;;;;;;5010194;28;20470;-80
2023/11/17 12:02:57;;;;;;;0.77;0.33;;;;;;;;;;5034389;28;20418;-82
2023/11/17 12:05:23;;;;;;;1.53;0.60;;;;;;;;;;5034359;28;20756;-82
2023/11/17 12:07:49;;;;;;;1.63;0.40;;;;;;;;;;5032668;28;20428;-81
2023/11/17 12:10:18;;;;;;;1.23;0.30;;;;;;;;;;5034208;28;20428;-82
2023/11/17 12:12:46;;;;;;;2.43;0.70;;;;;;;;;;5034137;28;20409;-83
2023/11/17 12:15:12;;;;;;;1.63;0.50;;;;;;;;;;5034103;28;20583;-83
2023/11/17 12:17:53;;;;;;;1.57;0.60;;;;;;;;;;5033934;28;20416;-83
2023/11/17 12:20:21;;;;;;;0.60;0.30;;;;;;;;;;5034204;28;20419;-83
2023/11/17 12:23:00;;;;;;;2.17;0.47;;;;;;;;;;5033616;28;20804;-83
2023/11/17 12:25:28;;;;;;;2.20;0.37;;;;;;;;;;5033865;28;20415;-82
2023/11/17 12:27:55;;;;;;;0.80;0.30;;;;;;;;;;5033840;28;20417;-82
2023/11/17 12:30:21;;;;;;;0.97;0.40;;;;;;;;;;5032347;28;20479;-83
2023/11/17 12:32:55;;;;;;;0.80;0.30;;;;;;;;;;5033834;28;20940;-81
2023/11/17 12:35:21;;;;;;;1.83;0.43;;;;;;;;;;5033704;28;20471;-81
2023/11/17 12:37:49;;;;;;;0.80;0.30;;;;;;;;;;5033506;28;20424;-82
2023/11/17 12:40:16;;;;;;;1.57;0.67;;;;;;;;;;5034891;28;20422;-81
2023/11/17 12:42:43;;;;;;;1.40;0.40;;;;;;;;;;5042510;28;20787;-81
2023/11/17 12:45:11;;;;;;;0.70;0.50;;;;;;;;;;5043942;28;20984;-80
2023/11/17 12:47:37;;;;;;;2.40;0.60;;;;;;;;;;5042964;28;20951;-82
2023/11/17 12:50:06;;;;;;;0.97;0.40;;;;;;;;;;5037710;28;20408;-81
2023/11/17 12:52:33;;;;;;;0.50;0.30;;;;;;;;;;5013411;28;20827;-81
2023/11/17 12:55:09;;;;;;;1.73;0.47;;;;;;;;;;5013623;28;20477;-81
2023/11/17 12:57:35;;;;;;;0.97;0.37;;;;;;;;;;5013661;28;20416;-81
2023/11/17 13:00:12;;;;;;;1.50;0.73;;;;;;;;;;5013677;28;20457;-81
2023/11/17 13:02:40;;;;;;;1.10;0.30;;;;;;;;;;5028798;28;20416;-81
2023/11/17 13:05:07;;;;;;;1.13;0.33;;;;;;;;;;5013662;28;20448;-82
2023/11/17 13:07:32;;;;;;;1.10;0.37;;;;;;;;;;4972532;28;20439;-82
2023/11/17 13:09:58;;;;;;;1.53;0.73;;;;;;;;;;5013503;28;20816;-81
2023/11/17 13:12:24;;;;;;;1.27;0.40;;;;;;;;;;5013537;28;20429;-81
2023/11/17 13:14:51;;;;;;;1.67;0.90;;;;;;;;;;5013465;28;20476;-81
2023/11/17 13:17:19;;;;;;;2.00;0.70;;;;;;;;;;5013316;28;20519;-81
2023/11/17 13:19:45;;;;;;;3.00;0.70;;;;;;;;;;5013406;28;20495;-81
2023/11/17 13:22:12;;;;;;;2.00;0.30;;;;;;;;;;5013095;28;20454;-80
2023/11/17 13:24:38;;;;;;;1.23;0.50;;;;;;;;;;5013409;28;20409;-82
2023/11/17 13:27:07;;;;;;;1.10;0.57;;;;;;;;;;5013290;28;20925;-81
2023/11/17 13:29:37;;;;;;;0.87;0.37;;;;;;;;;;5012786;28;20456;-82
2023/11/17 13:32:04;;;;;;;1.63;0.53;;;;;;;;;;5013107;28;20883;-82
2023/11/17 13:34:30;;;;;;;3.53;1.10;;;;;;;;;;5013056;28;20484;-80
2023/11/17 13:36:58;;;;;;;1.27;0.83;;;;;;;;;;5027784;28;20444;-80
2023/11/17 13:39:26;;;;;;;2.10;0.77;;;;;;;;;;5013122;28;20430;-81
2023/11/17 13:41:53;;;;;;;0.90;0.43;;;;;;;;;;5028366;28;20476;-81
2023/11/17 13:44:19;;;;;;;1.23;0.50;;;;;;;;;;5012888;28;20515;-81
2023/11/17 13:46:47;;;;;;;0.80;0.40;;;;;;;;;;5013218;28;20824;-81
2023/11/17 13:49:18;;;;;;;2.40;0.57;;;;;;;;;;5013115;28;20427;-81
2023/11/17 13:51:45;;;;;;;0.80;0.47;;;;;;;;;;5012874;28;20490;-80
2023/11/17 13:54:12;;;;;;;1.33;0.87;;;;;;;;;;5012948;28;20471;-81
2023/11/17 13:56:39;;;;;;;1.33;0.40;;;;;;;;;;5013049;28;20900;-81
2023/11/17 13:59:10;;;;;;;1.70;0.57;;;;;;;;;;5013057;28;20421;-80
2023/11/17 14:01:36;;;;;;;1.57;0.80;;;;;;;;;;5012970;28;20452;-81
2023/11/17 14:04:06;;;;;;;1.37;0.63;;;;;;;;;;5012977;28;20428;-81
2023/11/17 14:06:32;;;;;;;0.87;0.70;;;;;;;;;;5012611;28;20451;-81
2023/11/17 14:08:59;;;;;;;1.10;0.33;;;;;;;;;;5028003;28;20819;-80
2023/11/17 14:11:25;;;;;;;2.23;0.73;;;;;;;;;;5012960;28;20815;-81
2023/11/17 14:13:52;;;;;;;1.40;0.40;;;;;;;;;;5012886;28;20496;-81
2023/11/17 14:16:21;;;;;;;0.70;0.43;;;;;;;;;;5012950;28;20988;-81
2023/11/17 14:18:47;;;;;;;0.93;0.40;;;;;;;;;;5012896;28;20431;-81
2023/11/17 14:21:13;;;;;;;2.80;0.70;;;;;;;;;;5012577;28;20410;-81
2023/11/17 14:23:39;;;;;;;2.60;0.83;;;;;;;;;;5027975;28;20468;-81
2023/11/17 14:26:08;;;;;;;0.87;0.30;;;;;;;;;;5027884;28;20424;-81
2023/11/17 14:28:37;;;;;;;1.00;0.30;;;;;;;;;;5012814;28;20418;-82
2023/11/17 14:31:07;;;;;;;0.83;0.40;;;;;;;;;;5012561;28;20467;-82
2023/11/17 14:33:34;;;;;;;1.30;0.77;;;;;;;;;;5012648;28;20504;-82
2023/11/17 14:36:00;;;;;;;2.43;0.40;;;;;;;;;;5012541;28;20438;-81
2023/11/17 14:38:28;;;;;;;1.10;0.57;;;;;;;;;;5012370;28;20409;-81
2023/11/17 14:40:54;;;;;;;1.30;0.50;;;;;;;;;;5012589;28;21063;-81
2023/11/17 14:43:20;;;;;;;1.63;0.80;;;;;;;;;;5015500;28;20507;-81
2023/11/17 14:45:46;;;;;;;0.87;0.30;;;;;;;;;;5016047;28;20428;-81